createdAt,value
2018-12-03T00:00:25.062Z,9.50
2018-12-03T00:02:58.632Z,9.50
2018-12-03T00:05:27.217Z,9.50
2018-12-03T00:07:55.780Z,9.50
2018-12-03T00:10:24.663Z,9.60
2018-12-03T00:12:53.201Z,9.60
2018-12-03T00:15:21.692Z,9.60
2018-12-03T00:17:50.260Z,9.70
2018-12-03T00:20:18.756Z,9.70
2018-12-03T00:22:47.311Z,9.80
2018-12-03T00:25:15.912Z,9.80
2018-12-03T00:27:51.239Z,9.80
2018-12-03T00:30:20.128Z,9.80
2018-12-03T00:32:48.674Z,9.80
2018-12-03T00:35:17.220Z,9.80
2018-12-03T00:37:45.768Z,9.80
2018-12-03T00:40:14.639Z,9.80
2018-12-03T00:42:43.180Z,9.80
2018-12-03T00:45:11.765Z,9.70
2018-12-03T00:47:40.618Z,9.70
2018-12-03T00:50:09.192Z,9.70
2018-12-03T00:52:37.739Z,9.60
2018-12-03T00:55:07.759Z,9.60
2018-12-03T00:57:36.278Z,9.60
2018-12-03T01:00:07.433Z,9.60
2018-12-03T01:02:35.944Z,9.60
2018-12-03T01:05:05.160Z,9.50
2018-12-03T01:07:33.721Z,9.50
2018-12-03T01:10:02.248Z,9.60
2018-12-03T01:12:30.758Z,9.60
2018-12-03T01:14:59.318Z,9.60
2018-12-03T01:17:27.807Z,9.60
2018-12-03T01:19:56.335Z,9.60
2018-12-03T01:22:24.842Z,9.70
2018-12-03T01:24:53.510Z,9.70
2018-12-03T01:27:21.995Z,9.70
2018-12-03T01:29:50.639Z,9.70
2018-12-03T01:32:19.104Z,9.80
2018-12-03T01:34:47.720Z,9.80
2018-12-03T01:37:16.299Z,9.80
2018-12-03T01:39:44.987Z,9.80
2018-12-03T01:42:13.473Z,9.80
2018-12-03T01:44:41.997Z,9.70
2018-12-03T01:47:10.581Z,9.70
2018-12-03T01:49:39.120Z,9.70
2018-12-03T01:52:07.656Z,9.70
2018-12-03T01:54:36.166Z,9.60
2018-12-03T01:57:04.740Z,9.60
2018-12-03T01:59:33.210Z,9.60
2018-12-03T02:02:01.766Z,9.50
2018-12-03T02:04:30.277Z,9.50
2018-12-03T02:06:58.821Z,9.50
2018-12-03T02:09:27.399Z,9.40
2018-12-03T02:11:55.902Z,9.40
2018-12-03T02:14:24.404Z,9.40
2018-12-03T02:16:53.215Z,9.40
2018-12-03T02:19:21.836Z,9.30
2018-12-03T02:21:50.387Z,9.30
2018-12-03T02:24:18.875Z,9.30
2018-12-03T02:26:47.465Z,9.30
2018-12-03T02:29:16.119Z,9.30
2018-12-03T02:31:45.058Z,9.40
2018-12-03T02:34:13.721Z,9.40
2018-12-03T02:36:42.442Z,9.40
2018-12-03T02:39:11.026Z,9.50
2018-12-03T02:41:39.526Z,9.50
2018-12-03T02:44:08.067Z,9.50
2018-12-03T02:46:36.539Z,9.50
2018-12-03T02:49:06.399Z,9.50
2018-12-03T02:51:34.900Z,9.50
2018-12-03T02:54:03.474Z,9.50
2018-12-03T02:56:32.361Z,9.50
2018-12-03T02:59:00.961Z,9.50
2018-12-03T03:01:29.528Z,9.40
2018-12-03T03:03:58.146Z,9.50
2018-12-03T03:06:26.651Z,9.50
2018-12-03T03:08:55.182Z,9.50
2018-12-03T03:11:23.919Z,9.40
2018-12-03T03:13:52.492Z,9.40
2018-12-03T03:16:20.995Z,9.50
2018-12-03T03:18:49.884Z,9.50
2018-12-03T03:21:18.478Z,9.50
2018-12-03T03:23:47.019Z,9.50
2018-12-03T03:26:15.608Z,9.50
2018-12-03T03:28:44.217Z,9.50
2018-12-03T03:31:12.747Z,9.50
2018-12-03T03:33:41.302Z,9.50
2018-12-03T03:36:09.824Z,9.40
2018-12-03T03:38:38.401Z,9.50
2018-12-03T03:41:07.174Z,9.50
2018-12-03T03:43:35.694Z,9.50
2018-12-03T03:46:04.715Z,9.50
2018-12-03T03:48:33.178Z,9.50
2018-12-03T03:51:01.774Z,9.40
2018-12-03T03:53:30.308Z,9.40
2018-12-03T03:55:58.893Z,9.40
2018-12-03T03:58:27.414Z,9.40
2018-12-03T04:00:56.009Z,9.50
2018-12-03T04:03:24.682Z,9.40
2018-12-03T04:05:53.161Z,9.40
2018-12-03T04:08:21.748Z,9.40
2018-12-03T04:10:50.338Z,9.40
2018-12-03T04:13:19.160Z,9.40
2018-12-03T04:15:47.668Z,9.40
2018-12-03T04:18:16.224Z,9.40
2018-12-03T04:20:44.795Z,9.40
2018-12-03T04:23:13.285Z,9.30
2018-12-03T04:25:41.808Z,9.30
2018-12-03T04:28:10.329Z,9.30
2018-12-03T04:30:38.867Z,9.30
2018-12-03T04:33:07.424Z,9.30
2018-12-03T04:35:35.974Z,9.20
2018-12-03T04:38:04.622Z,9.20
2018-12-03T04:40:33.078Z,9.20
2018-12-03T04:43:01.626Z,9.20
2018-12-03T04:45:30.123Z,9.20
2018-12-03T04:47:58.682Z,9.20
2018-12-03T04:50:27.237Z,9.20
2018-12-03T04:52:55.755Z,9.20
2018-12-03T04:55:24.428Z,9.20
2018-12-03T04:57:53.054Z,9.20
2018-12-03T05:00:22.174Z,9.20
2018-12-03T05:02:51.955Z,9.20
2018-12-03T05:05:20.624Z,9.20
2018-12-03T05:07:49.366Z,9.20
2018-12-03T05:10:19.064Z,9.20
2018-12-03T05:12:48.852Z,9.20
2018-12-03T05:15:17.745Z,9.20
2018-12-03T05:17:46.424Z,9.20
2018-12-03T05:20:18.345Z,9.20
2018-12-03T05:22:46.904Z,9.20
2018-12-03T05:25:19.181Z,9.20
2018-12-03T05:27:44.688Z,9.10
2018-12-03T05:30:16.375Z,9.10
2018-12-03T05:32:45.763Z,9.10
2018-12-03T05:35:18.749Z,9.10
2018-12-03T05:37:47.527Z,9.10
2018-12-03T05:40:17.558Z,9.00
2018-12-03T05:42:46.512Z,9.00
2018-12-03T05:45:15.329Z,9.00
2018-12-03T05:47:43.943Z,8.90
2018-12-03T05:50:13.806Z,8.90
2018-12-03T05:52:43.208Z,8.90
2018-12-03T05:55:12.734Z,8.90
2018-12-03T05:57:42.189Z,8.90
2018-12-03T06:00:15.665Z,8.90
2018-12-03T06:02:44.561Z,8.80
2018-12-03T06:05:13.830Z,8.80
2018-12-03T06:07:42.481Z,8.80
2018-12-03T06:10:13.224Z,8.80
2018-12-03T06:12:42.030Z,8.70
2018-12-03T06:15:15.218Z,8.70
2018-12-03T06:17:44.222Z,8.70
2018-12-03T06:20:14.154Z,8.70
2018-12-03T06:22:44.472Z,8.70
2018-12-03T06:25:17.403Z,8.70
2018-12-03T06:27:46.271Z,8.70
2018-12-03T06:30:19.160Z,8.70
2018-12-03T06:32:48.120Z,8.70
2018-12-03T06:35:17.382Z,8.70
2018-12-03T06:37:47.110Z,8.70
2018-12-03T06:40:18.112Z,8.70
2018-12-03T06:42:46.987Z,8.70
2018-12-03T06:45:17.899Z,8.60
2018-12-03T06:48:20.194Z,8.70
2018-12-03T06:50:48.827Z,8.70
2018-12-03T06:53:17.785Z,8.80
2018-12-03T06:55:46.478Z,8.80
2018-12-03T06:58:15.854Z,8.80
2018-12-03T07:00:46.655Z,8.80
2018-12-03T07:03:15.354Z,8.90
2018-12-03T07:05:45.361Z,8.90
2018-12-03T07:08:14.350Z,8.90
2018-12-03T07:10:43.100Z,9.00
2018-12-03T07:13:14.309Z,9.00
2018-12-03T07:15:44.072Z,9.00
2018-12-03T07:18:13.108Z,9.10
2018-12-03T07:20:41.819Z,9.10
2018-12-03T07:23:10.557Z,9.20
2018-12-03T07:25:39.144Z,9.20
2018-12-03T07:28:07.704Z,9.20
2018-12-03T07:30:36.602Z,9.30
2018-12-03T07:33:06.385Z,9.30
2018-12-03T07:35:35.404Z,9.30
2018-12-03T07:38:04.809Z,9.40
2018-12-03T07:40:33.617Z,9.30
2018-12-03T07:43:02.495Z,9.30
2018-12-03T07:45:31.093Z,9.40
2018-12-03T07:47:59.758Z,9.40
2018-12-03T07:50:28.510Z,9.40
2018-12-03T07:52:57.132Z,9.40
2018-12-03T07:55:26.467Z,9.40
2018-12-03T07:58:01.777Z,9.40
2018-12-03T08:00:33.350Z,9.30
2018-12-03T08:03:02.483Z,9.30
2018-12-03T08:05:31.077Z,9.30
2018-12-03T08:07:59.778Z,9.30
2018-12-03T08:10:28.637Z,9.30
2018-12-03T08:12:57.765Z,9.30
2018-12-03T08:15:26.677Z,9.30
2018-12-03T08:17:57.373Z,9.40
2018-12-03T08:21:04.471Z,9.40
2018-12-03T08:23:40.154Z,9.50
2018-12-03T08:26:09.892Z,9.60
2018-12-03T08:28:38.804Z,9.60
2018-12-03T08:31:07.588Z,9.70
2018-12-03T08:33:36.489Z,9.80
2018-12-03T08:36:05.979Z,9.80
2018-12-03T08:38:35.070Z,9.80
2018-12-03T08:41:07.370Z,9.90
2018-12-03T08:43:35.956Z,9.90
2018-12-03T08:46:07.412Z,10.00
2018-12-03T08:48:39.450Z,10.00
2018-12-03T08:51:08.774Z,10.00
2018-12-03T08:53:37.285Z,10.10
2018-12-03T08:56:06.544Z,10.10
2018-12-03T08:58:35.297Z,10.10
2018-12-03T09:01:10.485Z,10.20
2018-12-03T09:03:39.306Z,10.20
2018-12-03T09:06:10.667Z,10.20
2018-12-03T09:08:39.384Z,10.20
2018-12-03T09:11:10.472Z,10.30
2018-12-03T09:13:39.053Z,10.20
2018-12-03T09:16:07.935Z,10.20
2018-12-03T09:18:39.143Z,10.20
2018-12-03T09:21:14.989Z,10.20
2018-12-03T09:23:45.186Z,10.10
2018-12-03T09:26:14.729Z,10.10
2018-12-03T09:28:43.330Z,10.10
2018-12-03T09:31:16.299Z,10.10
2018-12-03T09:33:51.117Z,10.10
2018-12-03T09:36:20.123Z,10.20
2018-12-03T09:38:53.865Z,10.20
2018-12-03T09:41:22.632Z,10.30
2018-12-03T09:43:51.418Z,10.30
2018-12-03T09:46:21.914Z,10.30
2018-12-03T09:48:56.470Z,10.40
2018-12-03T09:51:31.252Z,10.40
2018-12-03T09:54:00.502Z,10.50
2018-12-03T09:56:35.701Z,10.50
2018-12-03T09:59:12.195Z,10.50
2018-12-03T10:01:41.283Z,10.60
2018-12-03T10:04:10.495Z,10.60
2018-12-03T10:06:39.083Z,10.60
2018-12-03T10:09:10.870Z,10.60
2018-12-03T10:11:39.477Z,10.70
2018-12-03T10:14:08.101Z,10.70
2018-12-03T10:16:40.664Z,10.80
2018-12-03T10:19:09.569Z,10.90
2018-12-03T10:21:38.153Z,11.00
2018-12-03T10:24:13.671Z,11.10
2018-12-03T10:26:42.238Z,11.30
2018-12-03T10:29:14.882Z,11.40
2018-12-03T10:31:43.806Z,11.40
2018-12-03T10:34:17.519Z,11.40
2018-12-03T10:36:51.543Z,11.30
2018-12-03T10:39:29.974Z,11.20
2018-12-03T10:42:04.352Z,11.20
2018-12-03T10:44:32.994Z,11.10
2018-12-03T10:47:01.615Z,11.00
2018-12-03T10:49:30.153Z,11.00
2018-12-03T10:51:58.784Z,11.00
2018-12-03T10:54:27.455Z,10.90
2018-12-03T10:56:56.270Z,10.90
2018-12-03T10:59:24.911Z,11.00
2018-12-03T11:01:54.551Z,10.90
2018-12-03T11:04:28.672Z,10.90
2018-12-03T11:06:57.263Z,10.90
2018-12-03T11:09:32.937Z,10.90
2018-12-03T11:11:56.794Z,10.90
2018-12-03T11:14:25.435Z,10.90
2018-12-03T11:16:53.981Z,10.90
2018-12-03T11:19:22.771Z,10.90
2018-12-03T11:21:51.397Z,11.00
2018-12-03T11:24:19.936Z,11.30
2018-12-03T11:26:50.313Z,11.70
2018-12-03T11:29:18.917Z,12.00
2018-12-03T11:31:48.856Z,12.20
2018-12-03T11:34:22.389Z,12.30
2018-12-03T11:36:54.433Z,12.50
2018-12-03T11:39:28.339Z,12.90
2018-12-03T11:42:01.444Z,13.40
2018-12-03T11:44:30.381Z,13.60
2018-12-03T11:46:58.941Z,13.40
2018-12-03T11:49:27.459Z,13.30
2018-12-03T11:51:56.027Z,13.40
2018-12-03T11:54:24.750Z,13.70
2018-12-03T11:56:53.301Z,13.80
2018-12-03T11:59:22.158Z,13.60
2018-12-03T12:01:51.393Z,13.40
2018-12-03T12:04:19.922Z,13.10
2018-12-03T12:06:49.795Z,12.80
2018-12-03T12:09:21.142Z,12.70
2018-12-03T12:11:47.354Z,12.50
2018-12-03T12:14:24.788Z,12.30
2018-12-03T12:16:53.561Z,12.20
2018-12-03T12:19:22.221Z,12.00
2018-12-03T12:21:50.877Z,11.80
2018-12-03T12:24:20.041Z,11.70
2018-12-03T12:26:49.405Z,11.50
2018-12-03T12:29:18.202Z,11.40
2018-12-03T12:31:46.900Z,11.30
2018-12-03T12:34:15.624Z,11.20
2018-12-03T12:36:44.928Z,11.20
2018-12-03T12:39:13.792Z,11.10
2018-12-03T12:41:42.839Z,11.10
2018-12-03T12:44:12.293Z,11.10
2018-12-03T12:46:44.112Z,11.10
2018-12-03T12:49:12.940Z,11.00
2018-12-03T12:51:41.785Z,11.00
2018-12-03T12:54:10.548Z,11.00
2018-12-03T12:56:39.386Z,11.00
2018-12-03T12:59:08.133Z,10.90
2018-12-03T13:01:36.745Z,10.90
2018-12-03T13:04:06.645Z,10.80
2018-12-03T13:06:35.559Z,10.80
2018-12-03T13:09:06.750Z,10.70
2018-12-03T13:11:35.590Z,10.70
2018-12-03T13:14:05.526Z,10.60
2018-12-03T13:16:35.516Z,10.60
2018-12-03T13:19:06.932Z,10.60
2018-12-03T13:21:38.518Z,10.60
2018-12-03T13:24:07.567Z,10.60
2018-12-03T13:26:38.378Z,10.60
2018-12-03T13:29:07.440Z,10.50
2018-12-03T13:31:36.939Z,10.50
2018-12-03T13:34:07.167Z,10.40
2018-12-03T13:36:36.963Z,10.40
2018-12-03T13:39:09.802Z,10.30
2018-12-03T13:41:40.084Z,10.30
2018-12-03T13:44:10.578Z,10.30
2018-12-03T13:46:41.432Z,10.30
2018-12-03T13:49:10.770Z,10.20
2018-12-03T13:51:40.174Z,10.20
2018-12-03T13:54:09.935Z,10.20
2018-12-03T13:56:41.077Z,10.20
2018-12-03T13:59:11.450Z,10.20
2018-12-03T14:01:40.769Z,10.20
2018-12-03T14:04:13.529Z,10.20
2018-12-03T14:06:49.992Z,10.20
2018-12-03T14:10:26.049Z,10.20
2018-12-03T14:13:20.322Z,10.20
2018-12-03T14:16:04.139Z,10.20
2018-12-03T14:18:38.603Z,10.20
2018-12-03T14:21:13.092Z,10.20
2018-12-03T14:23:42.128Z,10.20
2018-12-03T14:26:11.109Z,10.20
2018-12-03T14:28:40.006Z,10.20
2018-12-03T14:31:08.672Z,10.20
2018-12-03T14:33:37.682Z,10.20
2018-12-03T14:36:06.572Z,10.20
2018-12-03T14:38:36.152Z,10.20
2018-12-03T14:41:05.114Z,10.20
2018-12-03T14:43:33.722Z,10.30
2018-12-03T14:46:02.346Z,10.30
2018-12-03T14:48:31.108Z,10.30
2018-12-03T14:50:59.973Z,10.20
2018-12-03T14:53:28.516Z,10.20
2018-12-03T14:55:57.092Z,10.20
2018-12-03T14:58:25.589Z,10.10
2018-12-03T15:00:55.324Z,10.10
2018-12-03T15:03:24.089Z,10.00
2018-12-03T15:05:52.687Z,10.00
2018-12-03T15:08:20.555Z,10.00
2018-12-03T15:10:49.185Z,10.00
2018-12-03T15:13:18.158Z,9.90
2018-12-03T15:15:46.902Z,9.90
2018-12-03T15:18:15.852Z,9.90
2018-12-03T15:20:46.435Z,9.80
2018-12-03T15:23:15.371Z,9.80
2018-12-03T15:25:44.094Z,9.80
2018-12-03T15:28:15.506Z,9.70
2018-12-03T15:30:41.350Z,9.70
2018-12-03T15:33:10.024Z,9.70
2018-12-03T15:35:38.698Z,9.70
2018-12-03T15:38:07.512Z,9.70
2018-12-03T15:40:36.467Z,9.60
2018-12-03T15:43:05.475Z,9.60
2018-12-03T15:45:33.285Z,9.60
2018-12-03T15:48:01.784Z,9.60
2018-12-03T15:50:35.383Z,9.50
2018-12-03T15:53:03.979Z,9.50
2018-12-03T15:55:34.196Z,9.50
2018-12-03T15:58:02.754Z,9.40
2018-12-03T16:00:31.327Z,9.40
2018-12-03T16:03:00.025Z,9.40
2018-12-03T16:05:28.857Z,9.40
2018-12-03T16:07:57.605Z,9.40
2018-12-03T16:10:25.435Z,9.40
2018-12-03T16:12:53.543Z,9.40
2018-12-03T16:15:22.466Z,9.40
2018-12-03T16:17:51.538Z,9.40
2018-12-03T16:20:20.479Z,9.40
2018-12-03T16:22:49.119Z,9.40
2018-12-03T16:25:18.244Z,9.40
2018-12-03T16:27:47.009Z,9.30
2018-12-03T16:30:20.274Z,9.30
2018-12-03T16:32:50.386Z,9.30
2018-12-03T16:35:19.216Z,9.30
2018-12-03T16:37:48.007Z,9.30
2018-12-03T16:40:17.127Z,9.30
2018-12-03T16:42:47.180Z,9.30
2018-12-03T16:45:17.111Z,9.30
2018-12-03T16:47:46.165Z,9.30
2018-12-03T16:50:14.987Z,9.30
2018-12-03T16:52:43.848Z,9.30
2018-12-03T16:55:12.666Z,9.30
2018-12-03T16:57:41.359Z,9.20
2018-12-03T17:00:12.359Z,9.20
2018-12-03T17:02:41.098Z,9.20
2018-12-03T17:05:09.943Z,9.20
2018-12-03T17:07:38.539Z,9.10
2018-12-03T17:10:11.530Z,9.10
2018-12-03T17:12:40.160Z,9.10
2018-12-03T17:15:08.753Z,9.10
2018-12-03T17:17:37.318Z,9.00
2018-12-03T17:20:11.969Z,9.00
2018-12-03T17:22:53.825Z,9.00
2018-12-03T17:25:24.817Z,9.00
2018-12-03T17:27:53.339Z,9.00
2018-12-03T17:30:23.340Z,9.00
2018-12-03T17:32:52.062Z,9.00
2018-12-03T17:35:20.689Z,9.00
2018-12-03T17:37:49.281Z,9.00
2018-12-03T17:40:17.846Z,9.00
2018-12-03T17:42:46.696Z,9.10
2018-12-03T17:45:15.263Z,9.00
2018-12-03T17:47:44.200Z,9.00
2018-12-03T17:50:12.806Z,9.00
2018-12-03T17:52:42.064Z,9.00
2018-12-03T17:55:11.747Z,9.00
2018-12-03T17:57:41.137Z,9.00
2018-12-03T18:00:13.833Z,9.00
2018-12-03T18:02:43.500Z,8.90
2018-12-03T18:05:12.849Z,8.90
2018-12-03T18:07:42.070Z,8.90
2018-12-03T18:10:12.096Z,8.90
2018-12-03T18:12:41.258Z,8.90
2018-12-03T18:15:10.363Z,8.90
2018-12-03T18:17:39.547Z,8.90
2018-12-03T18:20:10.185Z,8.80
2018-12-03T18:22:39.486Z,8.80
2018-12-03T18:25:09.422Z,8.80
2018-12-03T18:27:38.552Z,8.80
2018-12-03T18:30:09.969Z,8.80
2018-12-03T18:32:40.120Z,8.80
2018-12-03T18:35:10.716Z,8.80
2018-12-03T18:37:39.867Z,8.70
2018-12-03T18:40:11.197Z,8.60
2018-12-03T18:42:40.664Z,8.60
2018-12-03T18:45:10.324Z,8.60
2018-12-03T18:47:39.516Z,8.50
2018-12-03T18:50:20.083Z,8.50
2018-12-03T18:52:49.874Z,8.40
2018-12-03T18:55:18.729Z,8.40
2018-12-03T18:57:50.702Z,8.40
2018-12-03T19:00:20.570Z,8.30
2018-12-03T19:02:49.158Z,8.30
2018-12-03T19:05:17.726Z,8.30
2018-12-03T19:07:46.690Z,8.30
2018-12-03T19:10:15.272Z,8.20
2018-12-03T19:12:43.894Z,8.20
2018-12-03T19:15:12.684Z,8.20
2018-12-03T19:17:41.360Z,8.20
2018-12-03T19:20:10.259Z,8.20
2018-12-03T19:22:38.907Z,8.20
2018-12-03T19:25:08.476Z,8.20
2018-12-03T19:27:37.211Z,8.30
2018-12-03T19:30:09.683Z,8.30
2018-12-03T19:32:38.356Z,8.30
2018-12-03T19:35:07.122Z,8.30
2018-12-03T19:37:36.663Z,8.40
2018-12-03T19:40:06.837Z,8.40
2018-12-03T19:42:36.275Z,8.40
2018-12-03T19:45:05.566Z,8.40
2018-12-03T19:47:35.449Z,8.40
2018-12-03T19:50:04.586Z,8.30
2018-12-03T19:52:33.512Z,8.30
2018-12-03T19:55:02.541Z,8.40
2018-12-03T19:57:33.414Z,8.30
2018-12-03T20:00:02.357Z,8.30
2018-12-03T20:02:31.182Z,8.30
2018-12-03T20:05:03.985Z,8.30
2018-12-03T20:07:33.519Z,8.30
2018-12-03T20:10:03.145Z,8.30
2018-12-03T20:12:31.868Z,8.30
2018-12-03T20:15:00.447Z,8.30
2018-12-03T20:17:32.629Z,8.30
2018-12-03T20:20:01.135Z,8.30
2018-12-03T20:22:36.701Z,8.30
2018-12-03T20:25:06.871Z,8.30
2018-12-03T20:27:51.747Z,8.30
2018-12-03T20:30:30.201Z,8.20
2018-12-03T20:33:07.263Z,8.20
2018-12-03T20:36:16.260Z,8.20
2018-12-03T20:39:23.687Z,8.20
2018-12-03T20:41:54.456Z,8.20
2018-12-03T20:44:28.755Z,8.20
2018-12-03T20:47:09.229Z,8.10
2018-12-03T20:49:48.002Z,8.10
2018-12-03T20:52:22.075Z,8.10
2018-12-03T20:54:53.483Z,8.10
2018-12-03T20:57:22.649Z,8.10
2018-12-03T20:59:52.164Z,8.20
2018-12-03T21:02:22.870Z,8.10
2018-12-03T21:04:52.236Z,8.10
2018-12-03T21:07:21.294Z,8.10
2018-12-03T21:09:50.391Z,8.10
2018-12-03T21:12:19.088Z,8.10
2018-12-03T21:14:47.787Z,8.10
2018-12-03T21:17:16.695Z,8.10
2018-12-03T21:19:48.547Z,8.10
2018-12-03T21:22:17.149Z,8.10
2018-12-03T21:24:45.672Z,8.10
2018-12-03T21:27:14.269Z,8.10
2018-12-03T21:29:42.907Z,8.10
2018-12-03T21:32:50.196Z,8.10
2018-12-03T21:35:19.545Z,8.10
2018-12-03T21:37:47.162Z,8.10
2018-12-03T21:40:14.954Z,8.10
2018-12-03T21:42:42.497Z,8.10
2018-12-03T21:45:10.198Z,8.10
2018-12-03T21:47:38.009Z,8.00
2018-12-03T21:50:07.253Z,8.00
2018-12-03T21:52:35.181Z,8.00
2018-12-03T21:55:03.004Z,8.00
2018-12-03T21:57:30.656Z,8.00
2018-12-03T21:59:58.249Z,8.00
2018-12-03T22:02:25.759Z,8.00
2018-12-03T22:04:53.872Z,8.00
2018-12-03T22:07:21.603Z,8.00
2018-12-03T22:09:49.211Z,8.00
2018-12-03T22:12:16.877Z,8.10
2018-12-03T22:14:44.744Z,8.00
2018-12-03T22:17:13.282Z,8.00
2018-12-03T22:19:40.869Z,8.00
2018-12-03T22:22:08.813Z,8.10
2018-12-03T22:24:36.507Z,8.10
2018-12-03T22:27:04.036Z,8.10
2018-12-03T22:29:31.709Z,8.20
2018-12-03T22:31:59.290Z,8.20
2018-12-03T22:34:27.230Z,8.20
2018-12-03T22:36:54.846Z,8.20
2018-12-03T22:39:22.329Z,8.30
2018-12-03T22:41:49.959Z,8.30
2018-12-03T22:44:17.776Z,8.30
2018-12-03T22:46:45.339Z,8.30
2018-12-03T22:49:12.952Z,8.30
2018-12-03T22:51:40.559Z,8.30
2018-12-03T22:54:09.009Z,8.30
2018-12-03T22:56:36.650Z,8.30
2018-12-03T22:59:04.966Z,8.30
2018-12-03T23:01:32.637Z,8.30
2018-12-03T23:04:00.906Z,8.30
2018-12-03T23:06:28.518Z,8.40
2018-12-03T23:08:56.049Z,8.40
2018-12-03T23:11:23.680Z,8.40
2018-12-03T23:13:51.243Z,8.40
2018-12-03T23:16:19.043Z,8.40
2018-12-03T23:18:46.675Z,8.50
2018-12-03T23:21:14.249Z,8.50
2018-12-03T23:23:42.832Z,8.50
2018-12-03T23:26:10.681Z,8.50
2018-12-03T23:28:38.238Z,8.50
2018-12-03T23:31:05.937Z,8.50
2018-12-03T23:33:33.736Z,8.50
2018-12-03T23:36:01.378Z,8.50
2018-12-03T23:38:28.972Z,8.50
2018-12-03T23:40:56.551Z,8.50
2018-12-03T23:43:24.182Z,8.50
2018-12-03T23:45:52.197Z,8.40
2018-12-03T23:48:20.544Z,8.50
2018-12-03T23:50:49.027Z,8.40
2018-12-03T23:53:17.218Z,8.50
2018-12-03T23:55:45.366Z,8.40
2018-12-03T23:58:13.251Z,8.40
